sensor_id;sensor_type;location;lat;lon;timestamp;P1;durP1;ratioP1;P2;durP2;ratioP2
36247;SDS011;22287;50.824;5.644;2023-02-08T00:00:05;11.47;;;6.70;;
36247;SDS011;22287;50.824;5.644;2023-02-08T00:02:32;12.37;;;6.57;;
36247;SDS011;22287;50.824;5.644;2023-02-08T00:04:59;9.37;;;5.97;;
36247;SDS011;22287;50.824;5.644;2023-02-08T00:07:26;11.33;;;6.50;;
36247;SDS011;22287;50.824;5.644;2023-02-08T00:09:53;11.53;;;6.17;;
36247;SDS011;22287;50.824;5.644;2023-02-08T00:12:20;10.53;;;5.83;;
36247;SDS011;22287;50.824;5.644;2023-02-08T00:14:46;9.23;;;5.80;;
36247;SDS011;22287;50.824;5.644;2023-02-08T00:17:13;10.73;;;6.23;;
36247;SDS011;22287;50.824;5.644;2023-02-08T00:19:40;11.50;;;5.80;;
36247;SDS011;22287;50.824;5.644;2023-02-08T00:22:07;11.57;;;6.50;;
36247;SDS011;22287;50.824;5.644;2023-02-08T00:24:34;10.70;;;5.70;;
36247;SDS011;22287;50.824;5.644;2023-02-08T00:27:01;8.80;;;6.10;;
36247;SDS011;22287;50.824;5.644;2023-02-08T00:29:27;11.83;;;6.03;;
36247;SDS011;22287;50.824;5.644;2023-02-08T00:31:54;10.73;;;6.67;;
36247;SDS011;22287;50.824;5.644;2023-02-08T00:34:21;11.17;;;6.17;;
36247;SDS011;22287;50.824;5.644;2023-02-08T00:36:49;12.33;;;6.73;;
36247;SDS011;22287;50.824;5.644;2023-02-08T00:39:16;9.60;;;6.20;;
36247;SDS011;22287;50.824;5.644;2023-02-08T00:41:43;13.77;;;6.70;;
36247;SDS011;22287;50.824;5.644;2023-02-08T00:44:11;12.40;;;6.07;;
36247;SDS011;22287;50.824;5.644;2023-02-08T00:46:38;11.03;;;6.50;;
36247;SDS011;22287;50.824;5.644;2023-02-08T00:49:05;9.83;;;5.83;;
36247;SDS011;22287;50.824;5.644;2023-02-08T00:51:32;13.10;;;6.60;;
36247;SDS011;22287;50.824;5.644;2023-02-08T00:53:59;11.33;;;6.03;;
36247;SDS011;22287;50.824;5.644;2023-02-08T00:56:25;11.73;;;6.73;;
36247;SDS011;22287;50.824;5.644;2023-02-08T00:58:52;11.93;;;6.50;;
36247;SDS011;22287;50.824;5.644;2023-02-08T01:01:19;10.00;;;5.93;;
36247;SDS011;22287;50.824;5.644;2023-02-08T01:03:46;11.13;;;6.23;;
36247;SDS011;22287;50.824;5.644;2023-02-08T01:06:15;11.40;;;6.23;;
36247;SDS011;22287;50.824;5.644;2023-02-08T01:08:43;11.10;;;5.87;;
36247;SDS011;22287;50.824;5.644;2023-02-08T01:11:11;9.57;;;5.77;;
36247;SDS011;22287;50.824;5.644;2023-02-08T01:13:43;11.83;;;6.23;;
36247;SDS011;22287;50.824;5.644;2023-02-08T01:21:10;10.80;;;6.30;;
36247;SDS011;22287;50.824;5.644;2023-02-08T01:23:39;10.77;;;6.22;;
36247;SDS011;22287;50.824;5.644;2023-02-08T01:26:06;10.67;;;6.03;;
36247;SDS011;22287;50.824;5.644;2023-02-08T01:28:34;11.33;;;6.03;;
36247;SDS011;22287;50.824;5.644;2023-02-08T01:31:09;15.53;;;5.20;;
36247;SDS011;22287;50.824;5.644;2023-02-08T01:33:38;10.20;;;6.80;;
36247;SDS011;22287;50.824;5.644;2023-02-08T01:36:05;10.90;;;6.10;;
36247;SDS011;22287;50.824;5.644;2023-02-08T01:38:33;12.57;;;5.87;;
36247;SDS011;22287;50.824;5.644;2023-02-08T01:41:01;11.70;;;5.93;;
36247;SDS011;22287;50.824;5.644;2023-02-08T01:43:34;13.50;;;6.13;;
36247;SDS011;22287;50.824;5.644;2023-02-08T01:46:21;12.03;;;5.93;;
36247;SDS011;22287;50.824;5.644;2023-02-08T01:48:48;9.00;;;5.43;;
36247;SDS011;22287;50.824;5.644;2023-02-08T01:51:17;9.90;;;5.70;;
36247;SDS011;22287;50.824;5.644;2023-02-08T01:53:47;10.45;;;5.28;;
36247;SDS011;22287;50.824;5.644;2023-02-08T01:56:20;9.17;;;5.90;;
36247;SDS011;22287;50.824;5.644;2023-02-08T01:58:58;12.53;;;6.23;;
36247;SDS011;22287;50.824;5.644;2023-02-08T02:01:27;13.33;;;6.13;;
36247;SDS011;22287;50.824;5.644;2023-02-08T02:03:57;12.63;;;6.77;;
36247;SDS011;22287;50.824;5.644;2023-02-08T02:06:30;11.17;;;5.93;;
36247;SDS011;22287;50.824;5.644;2023-02-08T02:09:16;14.47;;;6.30;;
36247;SDS011;22287;50.824;5.644;2023-02-08T02:11:48;10.40;;;6.00;;
36247;SDS011;22287;50.824;5.644;2023-02-08T02:14:17;10.57;;;6.27;;
36247;SDS011;22287;50.824;5.644;2023-02-08T02:16:45;10.60;;;6.27;;
36247;SDS011;22287;50.824;5.644;2023-02-08T02:33:42;10.23;;;5.97;;
36247;SDS011;22287;50.824;5.644;2023-02-08T02:39:34;11.30;;;5.57;;
36247;SDS011;22287;50.824;5.644;2023-02-08T02:45:39;8.77;;;5.50;;
36247;SDS011;22287;50.824;5.644;2023-02-08T02:51:31;11.13;;;6.07;;
36247;SDS011;22287;50.824;5.644;2023-02-08T02:56:55;11.57;;;5.60;;
36247;SDS011;22287;50.824;5.644;2023-02-08T02:59:26;10.57;;;6.03;;
36247;SDS011;22287;50.824;5.644;2023-02-08T03:01:54;8.20;;;5.97;;
36247;SDS011;22287;50.824;5.644;2023-02-08T03:07:13;11.50;;;6.17;;
36247;SDS011;22287;50.824;5.644;2023-02-08T03:20:38;14.07;;;6.10;;
36247;SDS011;22287;50.824;5.644;2023-02-08T03:23:12;10.17;;;5.90;;
36247;SDS011;22287;50.824;5.644;2023-02-08T03:36:13;12.38;;;5.60;;
36247;SDS011;22287;50.824;5.644;2023-02-08T03:39:01;16.63;;;5.60;;
36247;SDS011;22287;50.824;5.644;2023-02-08T03:41:33;12.23;;;5.70;;
36247;SDS011;22287;50.824;5.644;2023-02-08T03:44:05;10.20;;;5.63;;
36247;SDS011;22287;50.824;5.644;2023-02-08T03:49:07;11.33;;;5.60;;
36247;SDS011;22287;50.824;5.644;2023-02-08T03:51:41;10.93;;;5.50;;
36247;SDS011;22287;50.824;5.644;2023-02-08T03:54:11;13.07;;;6.13;;
36247;SDS011;22287;50.824;5.644;2023-02-08T03:57:00;10.40;;;5.37;;
36247;SDS011;22287;50.824;5.644;2023-02-08T04:02:05;10.53;;;5.00;;
36247;SDS011;22287;50.824;5.644;2023-02-08T04:04:35;11.80;;;5.95;;
36247;SDS011;22287;50.824;5.644;2023-02-08T04:07:05;11.37;;;5.87;;
36247;SDS011;22287;50.824;5.644;2023-02-08T04:09:32;10.30;;;5.40;;
36247;SDS011;22287;50.824;5.644;2023-02-08T04:11:59;11.80;;;6.00;;
36247;SDS011;22287;50.824;5.644;2023-02-08T04:14:26;12.93;;;5.87;;
36247;SDS011;22287;50.824;5.644;2023-02-08T04:16:53;8.97;;;5.33;;
36247;SDS011;22287;50.824;5.644;2023-02-08T04:19:20;11.33;;;5.43;;
36247;SDS011;22287;50.824;5.644;2023-02-08T04:21:46;12.33;;;6.40;;
36247;SDS011;22287;50.824;5.644;2023-02-08T04:24:14;12.53;;;6.40;;
36247;SDS011;22287;50.824;5.644;2023-02-08T04:26:40;12.47;;;6.13;;
36247;SDS011;22287;50.824;5.644;2023-02-08T04:29:07;10.83;;;6.20;;
36247;SDS011;22287;50.824;5.644;2023-02-08T04:31:34;10.53;;;5.13;;
36247;SDS011;22287;50.824;5.644;2023-02-08T04:34:01;9.77;;;5.57;;
36247;SDS011;22287;50.824;5.644;2023-02-08T04:36:28;12.70;;;5.97;;
36247;SDS011;22287;50.824;5.644;2023-02-08T04:38:55;10.73;;;5.23;;
36247;SDS011;22287;50.824;5.644;2023-02-08T04:41:22;11.53;;;6.27;;
36247;SDS011;22287;50.824;5.644;2023-02-08T04:43:49;11.00;;;5.57;;
36247;SDS011;22287;50.824;5.644;2023-02-08T04:46:15;10.87;;;5.70;;
36247;SDS011;22287;50.824;5.644;2023-02-08T04:48:42;10.87;;;6.33;;
36247;SDS011;22287;50.824;5.644;2023-02-08T04:51:09;11.57;;;6.20;;
36247;SDS011;22287;50.824;5.644;2023-02-08T04:53:36;13.30;;;6.13;;
36247;SDS011;22287;50.824;5.644;2023-02-08T04:56:02;9.80;;;5.33;;
36247;SDS011;22287;50.824;5.644;2023-02-08T04:58:29;11.80;;;5.93;;
36247;SDS011;22287;50.824;5.644;2023-02-08T05:00:56;11.67;;;5.83;;
36247;SDS011;22287;50.824;5.644;2023-02-08T05:03:23;10.47;;;5.93;;
36247;SDS011;22287;50.824;5.644;2023-02-08T05:05:59;10.37;;;5.93;;
36247;SDS011;22287;50.824;5.644;2023-02-08T05:08:26;11.10;;;5.80;;
36247;SDS011;22287;50.824;5.644;2023-02-08T05:10:54;10.37;;;5.87;;
36247;SDS011;22287;50.824;5.644;2023-02-08T05:13:21;9.87;;;5.80;;
36247;SDS011;22287;50.824;5.644;2023-02-08T05:15:48;10.43;;;6.10;;
36247;SDS011;22287;50.824;5.644;2023-02-08T05:18:15;9.13;;;5.43;;
36247;SDS011;22287;50.824;5.644;2023-02-08T05:20:41;13.10;;;6.43;;
36247;SDS011;22287;50.824;5.644;2023-02-08T05:23:16;11.83;;;5.90;;
36247;SDS011;22287;50.824;5.644;2023-02-08T05:25:43;12.67;;;5.87;;
36247;SDS011;22287;50.824;5.644;2023-02-08T05:28:10;12.43;;;6.00;;
36247;SDS011;22287;50.824;5.644;2023-02-08T05:30:37;12.87;;;6.57;;
36247;SDS011;22287;50.824;5.644;2023-02-08T05:33:04;10.77;;;6.20;;
36247;SDS011;22287;50.824;5.644;2023-02-08T05:35:31;11.13;;;5.77;;
36247;SDS011;22287;50.824;5.644;2023-02-08T05:37:57;11.63;;;5.87;;
36247;SDS011;22287;50.824;5.644;2023-02-08T05:40:24;10.97;;;6.03;;
36247;SDS011;22287;50.824;5.644;2023-02-08T05:42:51;10.00;;;5.33;;
36247;SDS011;22287;50.824;5.644;2023-02-08T05:45:18;13.07;;;6.67;;
36247;SDS011;22287;50.824;5.644;2023-02-08T05:47:44;11.67;;;5.73;;
36247;SDS011;22287;50.824;5.644;2023-02-08T05:50:13;10.93;;;6.13;;
36247;SDS011;22287;50.824;5.644;2023-02-08T05:52:40;12.00;;;6.57;;
36247;SDS011;22287;50.824;5.644;2023-02-08T05:55:07;10.43;;;6.23;;
36247;SDS011;22287;50.824;5.644;2023-02-08T05:57:34;11.43;;;5.93;;
36247;SDS011;22287;50.824;5.644;2023-02-08T06:00:03;14.13;;;6.60;;
36247;SDS011;22287;50.824;5.644;2023-02-08T06:02:31;11.17;;;6.17;;
36247;SDS011;22287;50.824;5.644;2023-02-08T06:04:58;10.17;;;5.57;;
36247;SDS011;22287;50.824;5.644;2023-02-08T06:07:25;14.43;;;5.90;;
36247;SDS011;22287;50.824;5.644;2023-02-08T06:09:51;8.60;;;6.10;;
36247;SDS011;22287;50.824;5.644;2023-02-08T06:12:18;11.30;;;5.60;;
36247;SDS011;22287;50.824;5.644;2023-02-08T06:14:45;12.87;;;5.90;;
36247;SDS011;22287;50.824;5.644;2023-02-08T06:17:12;14.10;;;6.10;;
36247;SDS011;22287;50.824;5.644;2023-02-08T06:19:39;11.97;;;6.47;;
36247;SDS011;22287;50.824;5.644;2023-02-08T06:22:06;13.87;;;5.97;;
36247;SDS011;22287;50.824;5.644;2023-02-08T06:24:33;13.13;;;6.30;;
36247;SDS011;22287;50.824;5.644;2023-02-08T06:27:00;12.07;;;6.07;;
36247;SDS011;22287;50.824;5.644;2023-02-08T06:29:26;13.67;;;6.27;;
36247;SDS011;22287;50.824;5.644;2023-02-08T06:31:53;13.07;;;6.60;;
36247;SDS011;22287;50.824;5.644;2023-02-08T06:34:20;11.83;;;6.37;;
36247;SDS011;22287;50.824;5.644;2023-02-08T06:36:50;13.03;;;6.30;;
36247;SDS011;22287;50.824;5.644;2023-02-08T06:39:16;10.80;;;6.07;;
36247;SDS011;22287;50.824;5.644;2023-02-08T06:41:43;10.50;;;6.30;;
36247;SDS011;22287;50.824;5.644;2023-02-08T06:44:10;13.10;;;6.63;;
36247;SDS011;22287;50.824;5.644;2023-02-08T06:46:36;17.87;;;8.10;;
36247;SDS011;22287;50.824;5.644;2023-02-08T06:49:03;13.30;;;6.47;;
36247;SDS011;22287;50.824;5.644;2023-02-08T06:51:30;15.33;;;7.03;;
36247;SDS011;22287;50.824;5.644;2023-02-08T06:53:57;11.40;;;6.53;;
36247;SDS011;22287;50.824;5.644;2023-02-08T06:56:24;14.67;;;7.30;;
36247;SDS011;22287;50.824;5.644;2023-02-08T06:58:51;14.17;;;7.10;;
36247;SDS011;22287;50.824;5.644;2023-02-08T07:01:17;14.40;;;7.23;;
36247;SDS011;22287;50.824;5.644;2023-02-08T07:03:44;14.27;;;7.20;;
36247;SDS011;22287;50.824;5.644;2023-02-08T07:06:12;11.60;;;8.17;;
36247;SDS011;22287;50.824;5.644;2023-02-08T07:08:46;17.80;;;7.60;;
36247;SDS011;22287;50.824;5.644;2023-02-08T07:11:14;17.17;;;7.80;;
36247;SDS011;22287;50.824;5.644;2023-02-08T07:13:44;18.03;;;8.53;;
36247;SDS011;22287;50.824;5.644;2023-02-08T07:16:16;16.53;;;7.20;;
36247;SDS011;22287;50.824;5.644;2023-02-08T07:18:44;16.40;;;8.03;;
36247;SDS011;22287;50.824;5.644;2023-02-08T07:21:11;12.83;;;7.07;;
36247;SDS011;22287;50.824;5.644;2023-02-08T07:23:38;11.97;;;6.63;;
36247;SDS011;22287;50.824;5.644;2023-02-08T07:26:06;13.90;;;6.73;;
36247;SDS011;22287;50.824;5.644;2023-02-08T07:28:35;14.70;;;6.77;;
36247;SDS011;22287;50.824;5.644;2023-02-08T07:31:06;13.83;;;7.00;;
36247;SDS011;22287;50.824;5.644;2023-02-08T07:33:34;11.87;;;6.47;;
36247;SDS011;22287;50.824;5.644;2023-02-08T07:36:01;14.23;;;6.90;;
36247;SDS011;22287;50.824;5.644;2023-02-08T07:38:31;14.70;;;7.50;;
36247;SDS011;22287;50.824;5.644;2023-02-08T07:41:05;14.87;;;7.00;;
36247;SDS011;22287;50.824;5.644;2023-02-08T07:43:34;15.40;;;7.03;;
36247;SDS011;22287;50.824;5.644;2023-02-08T07:46:11;17.23;;;8.40;;
36247;SDS011;22287;50.824;5.644;2023-02-08T07:48:42;15.43;;;7.27;;
36247;SDS011;22287;50.824;5.644;2023-02-08T07:51:10;14.47;;;7.07;;
36247;SDS011;22287;50.824;5.644;2023-02-08T07:53:37;15.67;;;8.50;;
36247;SDS011;22287;50.824;5.644;2023-02-08T07:56:04;18.17;;;8.97;;
36247;SDS011;22287;50.824;5.644;2023-02-08T07:58:32;15.17;;;8.43;;
36247;SDS011;22287;50.824;5.644;2023-02-08T08:00:59;15.93;;;7.80;;
36247;SDS011;22287;50.824;5.644;2023-02-08T08:03:34;11.90;;;7.27;;
36247;SDS011;22287;50.824;5.644;2023-02-08T08:06:01;12.67;;;7.10;;
36247;SDS011;22287;50.824;5.644;2023-02-08T08:08:28;14.53;;;7.90;;
36247;SDS011;22287;50.824;5.644;2023-02-08T08:10:55;14.63;;;7.73;;
36247;SDS011;22287;50.824;5.644;2023-02-08T08:13:22;11.67;;;7.73;;
36247;SDS011;22287;50.824;5.644;2023-02-08T08:15:49;14.87;;;7.60;;
36247;SDS011;22287;50.824;5.644;2023-02-08T08:18:16;11.40;;;7.00;;
36247;SDS011;22287;50.824;5.644;2023-02-08T08:20:43;14.03;;;7.30;;
36247;SDS011;22287;50.824;5.644;2023-02-08T08:23:10;17.17;;;8.10;;
36247;SDS011;22287;50.824;5.644;2023-02-08T08:25:37;15.53;;;7.10;;
36247;SDS011;22287;50.824;5.644;2023-02-08T08:28:04;17.93;;;7.93;;
36247;SDS011;22287;50.824;5.644;2023-02-08T08:30:31;13.63;;;6.83;;
36247;SDS011;22287;50.824;5.644;2023-02-08T08:32:57;16.80;;;8.33;;
36247;SDS011;22287;50.824;5.644;2023-02-08T08:35:24;15.43;;;7.90;;
36247;SDS011;22287;50.824;5.644;2023-02-08T08:37:51;16.93;;;7.77;;
36247;SDS011;22287;50.824;5.644;2023-02-08T08:40:18;19.77;;;7.60;;
36247;SDS011;22287;50.824;5.644;2023-02-08T08:42:44;23.43;;;7.70;;
36247;SDS011;22287;50.824;5.644;2023-02-08T08:45:11;18.43;;;7.87;;
36247;SDS011;22287;50.824;5.644;2023-02-08T08:47:38;22.10;;;8.43;;
36247;SDS011;22287;50.824;5.644;2023-02-08T08:50:05;22.37;;;7.90;;
36247;SDS011;22287;50.824;5.644;2023-02-08T08:52:32;17.83;;;8.07;;
36247;SDS011;22287;50.824;5.644;2023-02-08T08:54:59;23.33;;;9.07;;
36247;SDS011;22287;50.824;5.644;2023-02-08T08:57:26;24.40;;;8.57;;
36247;SDS011;22287;50.824;5.644;2023-02-08T08:59:53;26.07;;;10.47;;
36247;SDS011;22287;50.824;5.644;2023-02-08T09:02:20;24.57;;;9.47;;
36247;SDS011;22287;50.824;5.644;2023-02-08T09:04:46;25.10;;;9.77;;
36247;SDS011;22287;50.824;5.644;2023-02-08T09:07:13;22.10;;;10.40;;
36247;SDS011;22287;50.824;5.644;2023-02-08T09:09:40;25.60;;;10.03;;
36247;SDS011;22287;50.824;5.644;2023-02-08T09:12:07;24.63;;;10.53;;
36247;SDS011;22287;50.824;5.644;2023-02-08T09:14:33;32.30;;;10.37;;
36247;SDS011;22287;50.824;5.644;2023-02-08T09:17:00;27.50;;;9.37;;
36247;SDS011;22287;50.824;5.644;2023-02-08T09:19:27;20.73;;;8.20;;
36247;SDS011;22287;50.824;5.644;2023-02-08T09:21:54;18.00;;;9.60;;
36247;SDS011;22287;50.824;5.644;2023-02-08T09:24:23;27.07;;;10.57;;
36247;SDS011;22287;50.824;5.644;2023-02-08T09:26:49;29.10;;;8.07;;
36247;SDS011;22287;50.824;5.644;2023-02-08T09:29:16;22.23;;;9.70;;
36247;SDS011;22287;50.824;5.644;2023-02-08T09:31:44;21.93;;;8.43;;
36247;SDS011;22287;50.824;5.644;2023-02-08T09:34:11;19.37;;;8.03;;
36247;SDS011;22287;50.824;5.644;2023-02-08T09:36:38;24.77;;;8.70;;
36247;SDS011;22287;50.824;5.644;2023-02-08T09:39:08;20.80;;;8.77;;
36247;SDS011;22287;50.824;5.644;2023-02-08T09:41:54;18.53;;;7.93;;
36247;SDS011;22287;50.824;5.644;2023-02-08T09:47:11;16.70;;;9.50;;
36247;SDS011;22287;50.824;5.644;2023-02-08T09:49:46;19.20;;;8.83;;
36247;SDS011;22287;50.824;5.644;2023-02-08T09:52:28;16.10;;;7.93;;
36247;SDS011;22287;50.824;5.644;2023-02-08T10:00:46;23.63;;;9.07;;
36247;SDS011;22287;50.824;5.644;2023-02-08T10:05:45;20.57;;;8.87;;
36247;SDS011;22287;50.824;5.644;2023-02-08T10:08:13;15.93;;;8.13;;
36247;SDS011;22287;50.824;5.644;2023-02-08T10:10:47;14.03;;;7.43;;
36247;SDS011;22287;50.824;5.644;2023-02-08T10:13:43;21.90;;;8.43;;
36247;SDS011;22287;50.824;5.644;2023-02-08T10:27:15;19.43;;;7.20;;
36247;SDS011;22287;50.824;5.644;2023-02-08T10:35:38;13.52;;;6.25;;
36247;SDS011;22287;50.824;5.644;2023-02-08T10:40:46;12.70;;;5.20;;
36247;SDS011;22287;50.824;5.644;2023-02-08T10:43:23;9.53;;;4.63;;
36247;SDS011;22287;50.824;5.644;2023-02-08T10:51:00;10.33;;;4.63;;
36247;SDS011;22287;50.824;5.644;2023-02-08T10:53:27;9.95;;;4.75;;
36247;SDS011;22287;50.824;5.644;2023-02-08T10:55:54;11.63;;;4.20;;
36247;SDS011;22287;50.824;5.644;2023-02-08T11:01:07;6.82;;;3.75;;
36247;SDS011;22287;50.824;5.644;2023-02-08T11:03:34;9.80;;;4.90;;
36247;SDS011;22287;50.824;5.644;2023-02-08T11:06:04;9.35;;;4.18;;
36247;SDS011;22287;50.824;5.644;2023-02-08T11:08:54;7.35;;;4.03;;
36247;SDS011;22287;50.824;5.644;2023-02-08T11:11:22;10.07;;;5.03;;
36247;SDS011;22287;50.824;5.644;2023-02-08T11:13:49;8.52;;;4.57;;
36247;SDS011;22287;50.824;5.644;2023-02-08T11:16:20;8.20;;;4.68;;
36247;SDS011;22287;50.824;5.644;2023-02-08T11:21:29;10.20;;;4.75;;
36247;SDS011;22287;50.824;5.644;2023-02-08T11:23:59;9.07;;;4.45;;
36247;SDS011;22287;50.824;5.644;2023-02-08T11:26:48;6.65;;;4.13;;
36247;SDS011;22287;50.824;5.644;2023-02-08T11:29:19;10.40;;;5.43;;
36247;SDS011;22287;50.824;5.644;2023-02-08T11:37:01;5.93;;;3.67;;
36247;SDS011;22287;50.824;5.644;2023-02-08T11:39:37;10.10;;;3.60;;
36247;SDS011;22287;50.824;5.644;2023-02-08T11:42:06;10.48;;;4.85;;
36247;SDS011;22287;50.824;5.644;2023-02-08T11:44:42;9.60;;;4.40;;
36247;SDS011;22287;50.824;5.644;2023-02-08T11:47:14;11.00;;;4.03;;
36247;SDS011;22287;50.824;5.644;2023-02-08T11:49:53;17.00;;;8.57;;
36247;SDS011;22287;50.824;5.644;2023-02-08T11:52:22;10.13;;;5.65;;
36247;SDS011;22287;50.824;5.644;2023-02-08T11:57:24;5.97;;;3.50;;
36247;SDS011;22287;50.824;5.644;2023-02-08T12:00:11;6.20;;;3.50;;
36247;SDS011;22287;50.824;5.644;2023-02-08T12:02:42;5.60;;;2.85;;
36247;SDS011;22287;50.824;5.644;2023-02-08T12:05:13;4.40;;;2.60;;
36247;SDS011;22287;50.824;5.644;2023-02-08T12:10:28;9.57;;;4.80;;
36247;SDS011;22287;50.824;5.644;2023-02-08T12:21:41;5.53;;;3.47;;
36247;SDS011;22287;50.824;5.644;2023-02-08T12:26:52;6.25;;;3.80;;
36247;SDS011;22287;50.824;5.644;2023-02-08T12:32:26;14.25;;;7.95;;
36247;SDS011;22287;50.824;5.644;2023-02-08T12:41:46;9.23;;;5.45;;
36247;SDS011;22287;50.824;5.644;2023-02-08T12:44:30;13.23;;;6.85;;
36247;SDS011;22287;50.824;5.644;2023-02-08T12:52:35;35.15;;;13.90;;
36247;SDS011;22287;50.824;5.644;2023-02-08T12:57:53;8.15;;;4.68;;
36247;SDS011;22287;50.824;5.644;2023-02-08T13:00:25;20.75;;;10.50;;
36247;SDS011;22287;50.824;5.644;2023-02-08T13:05:48;13.13;;;6.20;;
36247;SDS011;22287;50.824;5.644;2023-02-08T13:13:56;5.88;;;3.70;;
36247;SDS011;22287;50.824;5.644;2023-02-08T13:16:34;8.30;;;4.18;;
36247;SDS011;22287;50.824;5.644;2023-02-08T13:21:48;7.20;;;4.22;;
36247;SDS011;22287;50.824;5.644;2023-02-08T13:24:36;10.77;;;5.35;;
36247;SDS011;22287;50.824;5.644;2023-02-08T13:27:05;8.63;;;5.20;;
36247;SDS011;22287;50.824;5.644;2023-02-08T13:29:34;5.47;;;3.58;;
36247;SDS011;22287;50.824;5.644;2023-02-08T13:32:03;8.00;;;4.53;;
36247;SDS011;22287;50.824;5.644;2023-02-08T13:37:17;7.28;;;3.72;;
36247;SDS011;22287;50.824;5.644;2023-02-08T13:39:57;6.60;;;3.70;;
36247;SDS011;22287;50.824;5.644;2023-02-08T13:42:35;6.13;;;3.13;;
36247;SDS011;22287;50.824;5.644;2023-02-08T13:45:05;5.88;;;3.00;;
36247;SDS011;22287;50.824;5.644;2023-02-08T13:47:47;24.55;;;15.65;;
36247;SDS011;22287;50.824;5.644;2023-02-08T13:52:54;18.27;;;12.73;;
36247;SDS011;22287;50.824;5.644;2023-02-08T13:57:54;5.60;;;3.60;;
36247;SDS011;22287;50.824;5.644;2023-02-08T14:00:24;5.03;;;2.72;;
36247;SDS011;22287;50.824;5.644;2023-02-08T14:05:54;4.13;;;3.25;;
36247;SDS011;22287;50.824;5.644;2023-02-08T14:16:30;5.03;;;2.75;;
36247;SDS011;22287;50.824;5.644;2023-02-08T14:18:59;6.35;;;4.40;;
36247;SDS011;22287;50.824;5.644;2023-02-08T14:24:00;4.93;;;2.22;;
36247;SDS011;22287;50.824;5.644;2023-02-08T14:26:30;4.18;;;2.80;;
36247;SDS011;22287;50.824;5.644;2023-02-08T14:28:59;7.28;;;3.05;;
36247;SDS011;22287;50.824;5.644;2023-02-08T14:31:41;6.88;;;2.85;;
36247;SDS011;22287;50.824;5.644;2023-02-08T14:39:36;7.80;;;3.70;;
36247;SDS011;22287;50.824;5.644;2023-02-08T14:42:04;5.20;;;2.92;;
36247;SDS011;22287;50.824;5.644;2023-02-08T14:49:38;7.30;;;3.78;;
36247;SDS011;22287;50.824;5.644;2023-02-08T14:52:41;8.15;;;3.60;;
36247;SDS011;22287;50.824;5.644;2023-02-08T14:55:02;8.02;;;4.45;;
36247;SDS011;22287;50.824;5.644;2023-02-08T14:57:34;5.40;;;3.03;;
36247;SDS011;22287;50.824;5.644;2023-02-08T15:00:06;4.20;;;2.70;;
36247;SDS011;22287;50.824;5.644;2023-02-08T15:02:45;3.92;;;2.55;;
36247;SDS011;22287;50.824;5.644;2023-02-08T15:05:26;5.38;;;2.90;;
36247;SDS011;22287;50.824;5.644;2023-02-08T15:07:55;4.60;;;2.47;;
36247;SDS011;22287;50.824;5.644;2023-02-08T15:10:24;15.50;;;7.35;;
36247;SDS011;22287;50.824;5.644;2023-02-08T15:15:30;17.05;;;8.15;;
36247;SDS011;22287;50.824;5.644;2023-02-08T15:18:00;6.22;;;3.63;;
36247;SDS011;22287;50.824;5.644;2023-02-08T15:20:29;7.70;;;5.05;;
36247;SDS011;22287;50.824;5.644;2023-02-08T15:22:59;8.70;;;3.72;;
36247;SDS011;22287;50.824;5.644;2023-02-08T15:25:32;7.20;;;3.53;;
36247;SDS011;22287;50.824;5.644;2023-02-08T15:28:01;14.70;;;7.10;;
36247;SDS011;22287;50.824;5.644;2023-02-08T15:30:43;11.18;;;5.32;;
36247;SDS011;22287;50.824;5.644;2023-02-08T15:33:15;6.07;;;3.58;;
36247;SDS011;22287;50.824;5.644;2023-02-08T15:35:43;7.97;;;2.92;;
36247;SDS011;22287;50.824;5.644;2023-02-08T15:38:13;7.28;;;3.40;;
36247;SDS011;22287;50.824;5.644;2023-02-08T15:41:03;4.40;;;2.92;;
36247;SDS011;22287;50.824;5.644;2023-02-08T15:43:31;6.28;;;3.55;;
36247;SDS011;22287;50.824;5.644;2023-02-08T15:46:04;13.23;;;8.77;;
36247;SDS011;22287;50.824;5.644;2023-02-08T15:48:41;9.15;;;5.38;;
36247;SDS011;22287;50.824;5.644;2023-02-08T15:51:10;14.27;;;8.05;;
36247;SDS011;22287;50.824;5.644;2023-02-08T15:53:40;14.38;;;7.95;;
36247;SDS011;22287;50.824;5.644;2023-02-08T15:56:09;14.50;;;9.10;;
36247;SDS011;22287;50.824;5.644;2023-02-08T15:58:56;12.55;;;8.15;;
36247;SDS011;22287;50.824;5.644;2023-02-08T16:01:25;15.83;;;11.83;;
36247;SDS011;22287;50.824;5.644;2023-02-08T16:03:54;23.10;;;17.33;;
36247;SDS011;22287;50.824;5.644;2023-02-08T16:06:27;16.55;;;12.00;;
36247;SDS011;22287;50.824;5.644;2023-02-08T16:08:57;15.18;;;9.77;;
36247;SDS011;22287;50.824;5.644;2023-02-08T16:11:31;18.23;;;9.93;;
36247;SDS011;22287;50.824;5.644;2023-02-08T16:14:01;7.65;;;5.30;;
36247;SDS011;22287;50.824;5.644;2023-02-08T16:19:26;14.27;;;7.47;;
36247;SDS011;22287;50.824;5.644;2023-02-08T16:22:20;10.80;;;6.53;;
36247;SDS011;22287;50.824;5.644;2023-02-08T16:24:53;11.85;;;6.95;;
36247;SDS011;22287;50.824;5.644;2023-02-08T16:27:25;12.70;;;6.07;;
36247;SDS011;22287;50.824;5.644;2023-02-08T16:29:54;11.80;;;5.50;;
36247;SDS011;22287;50.824;5.644;2023-02-08T16:34:56;9.20;;;6.15;;
36247;SDS011;22287;50.824;5.644;2023-02-08T16:37:27;9.23;;;5.47;;
36247;SDS011;22287;50.824;5.644;2023-02-08T16:39:56;8.60;;;5.93;;
36247;SDS011;22287;50.824;5.644;2023-02-08T16:42:46;10.90;;;6.53;;
36247;SDS011;22287;50.824;5.644;2023-02-08T16:45:15;9.43;;;5.65;;
36247;SDS011;22287;50.824;5.644;2023-02-08T16:47:51;9.88;;;5.95;;
36247;SDS011;22287;50.824;5.644;2023-02-08T16:50:24;10.13;;;5.40;;
36247;SDS011;22287;50.824;5.644;2023-02-08T16:52:53;14.80;;;5.60;;
36247;SDS011;22287;50.824;5.644;2023-02-08T16:55:29;8.45;;;4.32;;
36247;SDS011;22287;50.824;5.644;2023-02-08T16:57:58;6.97;;;3.42;;
36247;SDS011;22287;50.824;5.644;2023-02-08T17:02:57;6.93;;;3.80;;
36247;SDS011;22287;50.824;5.644;2023-02-08T17:05:28;9.15;;;3.30;;
36247;SDS011;22287;50.824;5.644;2023-02-08T17:07:57;6.80;;;4.78;;
36247;SDS011;22287;50.824;5.644;2023-02-08T17:10:29;6.65;;;3.90;;
36247;SDS011;22287;50.824;5.644;2023-02-08T17:12:58;8.57;;;4.60;;
36247;SDS011;22287;50.824;5.644;2023-02-08T17:15:45;5.60;;;3.65;;
36247;SDS011;22287;50.824;5.644;2023-02-08T17:18:13;7.18;;;3.55;;
36247;SDS011;22287;50.824;5.644;2023-02-08T17:20:40;6.10;;;3.58;;
36247;SDS011;22287;50.824;5.644;2023-02-08T17:23:08;8.47;;;4.20;;
36247;SDS011;22287;50.824;5.644;2023-02-08T17:25:35;7.40;;;3.50;;
36247;SDS011;22287;50.824;5.644;2023-02-08T17:28:07;5.90;;;3.53;;
36247;SDS011;22287;50.824;5.644;2023-02-08T17:30:40;9.20;;;3.30;;
36247;SDS011;22287;50.824;5.644;2023-02-08T17:33:09;7.30;;;3.53;;
36247;SDS011;22287;50.824;5.644;2023-02-08T17:35:44;7.23;;;4.03;;
36247;SDS011;22287;50.824;5.644;2023-02-08T17:38:15;10.37;;;4.17;;
36247;SDS011;22287;50.824;5.644;2023-02-08T17:40:43;7.10;;;4.83;;
36247;SDS011;22287;50.824;5.644;2023-02-08T17:43:10;9.63;;;3.40;;
36247;SDS011;22287;50.824;5.644;2023-02-08T17:45:38;8.10;;;4.00;;
36247;SDS011;22287;50.824;5.644;2023-02-08T17:48:07;6.60;;;3.97;;
36247;SDS011;22287;50.824;5.644;2023-02-08T17:50:34;8.67;;;4.00;;
36247;SDS011;22287;50.824;5.644;2023-02-08T17:53:01;8.63;;;4.17;;
36247;SDS011;22287;50.824;5.644;2023-02-08T17:55:29;7.80;;;3.53;;
36247;SDS011;22287;50.824;5.644;2023-02-08T17:57:56;6.80;;;3.63;;
36247;SDS011;22287;50.824;5.644;2023-02-08T18:00:23;6.23;;;3.57;;
36247;SDS011;22287;50.824;5.644;2023-02-08T18:02:52;5.63;;;3.57;;
36247;SDS011;22287;50.824;5.644;2023-02-08T18:05:21;9.33;;;4.30;;
36247;SDS011;22287;50.824;5.644;2023-02-08T18:07:50;7.10;;;3.93;;
36247;SDS011;22287;50.824;5.644;2023-02-08T18:10:18;6.03;;;4.03;;